Time;durP1;ratioP1;P1;durP2;ratioP2;P2;SDS_P1;SDS_P2;PMS_P1;PMS_P2;Temp;Humidity;BMP_temperature;BMP_pressure;BME280_temperature;BME280_humidity;BME280_pressure;Samples;Min_cycle;Max_cycle;Signal;HPM_P1;HPM_P2
2022/09/03 00:00:15;;;;;;;1.50;1.40;;;20.90;41.50;;;23.36;34.07;101529.75;5034194;28;20198;-63
2022/09/03 00:02:49;;;;;;;2.30;1.33;;;20.80;41.60;;;23.30;34.17;101524.47;5034409;28;20226;-64
2022/09/03 00:05:25;;;;;;;3.00;2.27;;;20.70;41.60;;;23.22;34.19;101527.56;5050575;28;20191;-65
2022/09/03 00:08:02;;;;;;;2.13;1.70;;;20.70;41.80;;;23.15;34.48;101521.50;5034159;28;20182;-63
2022/09/03 00:10:44;;;;;;;1.73;1.33;;;20.60;41.90;;;23.12;34.37;101530.03;5033909;28;20273;-63
2022/09/03 00:13:23;;;;;;;2.70;1.50;;;20.60;42.10;;;23.06;34.66;101525.63;5033945;28;20248;-64
2022/09/03 00:15:55;;;;;;;2.43;1.60;;;20.50;42.20;;;23.02;34.98;101527.13;5034020;28;20210;-64
2022/09/03 00:18:27;;;;;;;1.67;1.20;;;20.50;42.50;;;22.97;34.74;101524.31;5033801;28;20580;-64
2022/09/03 00:21:07;;;;;;;3.10;1.83;;;20.40;42.50;;;22.93;34.65;101524.00;5033027;28;20190;-64
2022/09/03 00:23:40;;;;;;;3.73;1.90;;;20.40;42.60;;;22.89;34.90;101528.22;5033853;28;20210;-63
2022/09/03 00:26:21;;;;;;;3.13;1.33;;;20.30;42.60;;;22.82;35.25;101535.59;5034131;28;20197;-64
2022/09/03 00:28:58;;;;;;;1.67;1.40;;;20.30;42.90;;;22.79;35.24;101536.06;5034095;28;20201;-64
2022/09/03 00:31:31;;;;;;;2.17;1.40;;;20.20;43.00;;;22.78;34.82;101537.91;5048570;28;20247;-64
2022/09/03 00:34:08;;;;;;;1.50;1.40;;;20.20;43.10;;;22.73;35.37;101535.13;5054664;28;20695;-63
2022/09/03 00:36:41;;;;;;;2.80;1.30;;;20.20;43.20;;;22.71;35.11;101537.22;5060579;28;20217;-61
2022/09/03 00:39:11;;;;;;;3.90;1.20;;;20.20;43.30;;;22.72;35.46;101538.88;5074615;28;20173;-63
2022/09/03 00:41:58;;;;;;;2.53;1.17;;;20.10;43.20;;;22.64;35.02;101536.53;5073504;28;20229;-63
2022/09/03 00:44:53;;;;;;;2.30;1.53;;;20.10;43.20;;;22.56;35.14;101542.19;5071519;28;20193;-62
2022/09/03 00:47:31;;;;;;;1.43;1.20;;;20.00;43.30;;;22.52;35.40;101541.03;5053212;28;20197;-63
2022/09/03 00:50:13;;;;;;;2.50;1.57;;;20.00;43.60;;;22.48;35.72;101537.19;5053708;28;20174;-63
2022/09/03 00:53:03;;;;;;;1.27;1.10;;;20.00;43.60;;;22.41;36.04;101531.13;5043735;28;20226;-62
2022/09/03 00:55:46;;;;;;;1.40;1.30;;;19.90;43.70;;;22.40;36.03;101534.84;5034399;28;20206;-63
2022/09/03 00:58:43;;;;;;;1.20;1.10;;;19.90;44.00;;;22.33;36.18;101525.28;5033663;28;20628;-63
2022/09/03 01:01:19;;;;;;;1.47;1.37;;;19.80;44.00;;;22.34;36.41;101518.88;5032897;28;20286;-63
2022/09/03 01:03:59;;;;;;;1.70;1.60;;;19.80;44.10;;;22.33;35.77;101511.88;5032984;28;20179;-63
2022/09/03 01:06:38;;;;;;;1.60;1.50;;;19.70;44.10;;;22.31;36.20;101514.78;5033466;28;20182;-64
2022/09/03 01:09:30;;;;;;;3.40;1.33;;;19.70;44.30;;;22.28;36.13;101517.94;5049998;28;20189;-64
2022/09/03 01:12:06;;;;;;;3.13;1.30;;;19.70;44.40;;;22.26;36.55;101517.34;5055888;28;20213;-63
2022/09/03 01:14:51;;;;;;;1.37;1.27;;;19.70;44.30;;;22.21;36.20;101528.78;5056589;28;20182;-62
2022/09/03 01:17:35;;;;;;;1.10;1.10;;;19.70;44.60;;;22.19;36.22;101522.00;5056550;28;20653;-63
2022/09/03 01:20:20;;;;;;;2.27;1.40;;;19.60;44.60;;;22.15;36.31;101521.66;5056688;28;20193;-63
2022/09/03 01:23:34;;;;;;;2.03;1.40;;;19.60;44.70;;;22.11;36.70;101525.84;5056293;28;20265;-63
2022/09/03 01:26:26;;;;;;;2.70;1.60;;;19.60;44.80;;;22.09;36.38;101521.75;5056194;28;20190;-64
2022/09/03 01:29:11;;;;;;;5.00;1.40;;;19.50;44.70;;;22.05;36.35;101516.06;5055810;28;20201;-63
2022/09/03 01:31:57;;;;;;;1.60;1.40;;;19.50;44.80;;;22.04;36.71;101527.00;5055892;28;20197;-63
2022/09/03 01:34:43;;;;;;;1.83;1.30;;;19.50;45.00;;;22.02;36.54;101521.03;5071230;28;20506;-63
2022/09/03 01:37:27;;;;;;;2.13;1.37;;;19.40;45.10;;;22.02;36.71;101526.41;5056452;28;20582;-63
2022/09/03 01:40:04;;;;;;;2.17;1.50;;;19.40;45.10;;;22.00;37.09;101529.31;5056334;28;20657;-63
2022/09/03 01:42:47;;;;;;;1.47;1.37;;;19.40;45.30;;;21.98;36.96;101525.25;5055499;28;20214;-63
2022/09/03 01:45:47;;;;;;;1.23;1.13;;;19.40;45.30;;;21.92;36.78;101526.97;5055499;28;20205;-63
2022/09/03 01:48:45;;;;;;;1.37;1.27;;;19.40;45.50;;;21.88;37.18;101524.97;5056249;28;20178;-63
2022/09/03 01:51:21;;;;;;;1.57;1.33;;;19.30;45.40;;;21.86;36.90;101521.72;5055693;28;20198;-62
2022/09/03 01:54:26;;;;;;;1.93;1.40;;;19.30;45.50;;;21.76;37.37;101519.56;5055976;28;20264;-63
2022/09/03 01:57:33;;;;;;;1.57;1.47;;;19.30;45.70;;;21.71;37.36;101519.41;5055393;28;20710;-62
2022/09/03 02:00:10;;;;;;;2.13;1.33;;;19.20;45.90;;;21.74;37.53;101520.81;5055790;28;20607;-64
2022/09/03 02:02:42;;;;;;;1.40;1.10;;;19.20;45.80;;;21.73;37.13;101520.00;5054971;28;20205;-62
2022/09/03 02:05:14;;;;;;;1.50;1.40;;;19.20;46.00;;;21.72;37.35;101520.25;5055550;28;20557;-64
2022/09/03 02:07:46;;;;;;;1.57;1.33;;;19.10;46.20;;;21.71;37.89;101523.97;5055662;28;20647;-62
2022/09/03 02:10:17;;;;;;;1.83;1.30;;;19.10;46.20;;;21.70;37.83;101516.97;5055669;28;20580;-62
2022/09/03 02:12:52;;;;;;;1.37;1.23;;;19.10;46.30;;;21.67;37.91;101520.09;5054712;28;20220;-62
2022/09/03 02:15:24;;;;;;;1.60;1.43;;;19.10;46.40;;;21.66;37.75;101526.50;5055387;28;20253;-62
2022/09/03 02:17:59;;;;;;;2.17;1.70;;;19.00;46.30;;;21.64;37.86;101518.69;5055150;28;20261;-62
2022/09/03 02:20:28;;;;;;;1.87;1.50;;;19.00;46.60;;;21.64;37.52;101523.22;5054861;28;20492;-62
2022/09/03 02:22:58;;;;;;;1.77;1.50;;;19.00;46.70;;;21.63;37.93;101529.66;5055036;28;20221;-62
2022/09/03 02:25:34;;;;;;;1.60;1.50;;;19.00;46.80;;;21.61;38.07;101518.34;5054649;28;20265;-62
2022/09/03 02:28:06;;;;;;;1.53;1.43;;;19.00;46.90;;;21.61;37.88;101523.72;5054691;28;20170;-62
2022/09/03 02:30:44;;;;;;;1.97;1.70;;;19.00;47.00;;;21.65;38.13;101516.84;5054852;28;20194;-63
2022/09/03 02:33:14;;;;;;;2.03;1.80;;;19.00;47.00;;;21.67;37.64;101518.25;5059418;28;20292;-63
2022/09/03 02:35:43;;;;;;;1.53;1.30;;;19.00;47.00;;;21.71;37.61;101519.41;5074937;28;20239;-62
2022/09/03 02:38:12;;;;;;;2.40;1.60;;;19.10;47.00;;;21.71;37.46;101519.41;5054722;28;20189;-63
2022/09/03 02:40:40;;;;;;;3.30;1.40;;;19.10;46.90;;;21.70;37.51;101522.34;5054283;28;20189;-63
2022/09/03 02:43:16;;;;;;;3.50;1.80;;;19.00;46.70;;;21.65;37.63;101516.84;5054329;28;20218;-63
2022/09/03 02:45:49;;;;;;;3.53;1.50;;;19.00;46.70;;;21.62;38.05;101507.41;5053996;28;20198;-63
2022/09/03 02:48:23;;;;;;;2.37;1.60;;;19.00;46.90;;;21.58;38.13;101523.09;5054683;28;20243;-62
2022/09/03 02:50:51;;;;;;;1.60;1.30;;;19.00;46.90;;;21.55;37.98;101512.84;5054366;28;20185;-63
2022/09/03 02:53:19;;;;;;;1.93;1.63;;;18.90;47.00;;;21.52;38.13;101515.16;5054214;28;20244;-63
2022/09/03 02:55:46;;;;;;;2.17;1.50;;;18.90;47.30;;;21.50;38.04;101514.56;5054392;28;20690;-63
2022/09/03 02:58:14;;;;;;;1.10;1.00;;;18.90;47.20;;;21.50;38.42;101518.06;5054396;28;20194;-62
2022/09/03 03:00:41;;;;;;;1.67;1.47;;;18.80;47.20;;;21.48;38.43;101514.00;5054215;28;20216;-62
2022/09/03 03:03:09;;;;;;;1.83;1.47;;;18.80;47.10;;;21.45;38.25;101515.25;5054221;28;20210;-62
2022/09/03 03:05:47;;;;;;;2.20;1.40;;;18.80;47.10;;;21.39;38.23;101515.34;5054194;28;20190;-62
2022/09/03 03:08:20;;;;;;;2.07;1.50;;;18.70;47.20;;;21.37;37.92;101523.59;5053777;28;20190;-63
2022/09/03 03:10:48;;;;;;;6.03;5.53;;;18.70;47.40;;;21.33;37.95;101521.59;5053193;28;20200;-63
2022/09/03 03:13:15;;;;;;;2.37;2.17;;;18.70;47.30;;;21.29;38.79;101518.56;5053361;28;20209;-63
2022/09/03 03:15:43;;;;;;;1.90;1.80;;;18.70;47.50;;;21.25;38.51;101517.38;5053359;28;20201;-63
2022/09/03 03:18:12;;;;;;;1.80;1.47;;;18.60;47.60;;;21.22;38.24;101523.19;5053374;28;20242;-63
2022/09/03 03:20:41;;;;;;;4.90;1.60;;;18.50;47.60;;;21.18;38.36;101519.31;5053517;28;20186;-62
2022/09/03 03:23:09;;;;;;;4.43;2.40;;;18.50;47.80;;;21.16;38.36;101521.41;5053346;28;20210;-64
2022/09/03 03:25:38;;;;;;;1.60;1.50;;;18.50;47.80;;;21.15;38.49;101518.94;5053700;28;20189;-63
2022/09/03 03:28:07;;;;;;;3.57;1.80;;;18.50;47.80;;;21.14;38.83;101522.66;5053454;28;20186;-63
2022/09/03 03:30:38;;;;;;;2.30;2.10;;;18.40;47.90;;;21.10;38.62;101527.66;5053270;28;20193;-62
2022/09/03 03:33:06;;;;;;;2.23;1.90;;;18.40;48.20;;;21.09;39.20;101519.84;5056689;28;20209;-62
2022/09/03 03:35:35;;;;;;;1.83;1.50;;;18.40;48.10;;;21.10;39.18;101522.31;5053406;28;20193;-62
2022/09/03 03:38:04;;;;;;;1.37;1.27;;;18.40;48.20;;;21.07;38.63;101517.38;5072248;28;20202;-62
2022/09/03 03:40:31;;;;;;;1.70;1.60;;;18.40;48.20;;;21.05;38.59;101515.97;5073016;28;20209;-62
2022/09/03 03:42:59;;;;;;;2.20;1.70;;;18.40;48.30;;;21.02;39.33;101513.72;5073843;28;20296;-62
2022/09/03 03:45:26;;;;;;;2.10;1.60;;;18.40;48.50;;;21.00;39.27;101513.13;5060673;28;20198;-63
2022/09/03 03:47:57;;;;;;;3.70;1.70;;;18.30;48.50;;;21.01;39.07;101522.81;5053133;28;20190;-63
2022/09/03 03:50:24;;;;;;;2.30;1.43;;;18.30;48.60;;;21.00;38.87;101516.63;5053310;28;20519;-62
2022/09/03 03:52:58;;;;;;;1.63;1.50;;;18.30;49.10;;;20.99;39.02;101514.97;5053387;28;20217;-63
2022/09/03 03:55:27;;;;;;;2.53;1.63;;;18.30;48.60;;;21.00;39.18;101511.25;5053551;28;20182;-62
2022/09/03 03:57:58;;;;;;;1.57;1.33;;;18.30;48.60;;;20.97;39.34;101510.91;5053099;28;20222;-63
2022/09/03 04:00:26;;;;;;;3.57;1.53;;;18.30;48.60;;;20.95;39.30;101513.78;5052568;28;20213;-62
2022/09/03 04:02:53;;;;;;;4.23;1.50;;;18.30;48.60;;;20.93;39.64;101515.88;5052825;28;20209;-62
2022/09/03 04:05:20;;;;;;;1.77;1.53;;;18.30;48.70;;;20.91;39.05;101518.78;5052984;28;20194;-65
2022/09/03 04:07:50;;;;;;;2.40;2.20;;;18.30;48.80;;;20.88;39.41;101515.72;5052224;28;20277;-64
2022/09/03 04:10:17;;;;;;;2.30;1.70;;;18.20;48.90;;;20.85;39.09;101513.50;5052685;28;20189;-62
2022/09/03 04:12:46;;;;;;;3.60;1.60;;;18.20;48.90;;;20.80;39.37;101522.19;5052215;28;20205;-62
2022/09/03 04:15:13;;;;;;;2.10;1.73;;;18.10;49.10;;;20.79;39.57;101519.75;5052394;28;20197;-64
2022/09/03 04:17:42;;;;;;;1.63;1.53;;;18.10;49.10;;;20.79;39.35;101519.75;5052019;28;20555;-64
2022/09/03 04:20:10;;;;;;;1.93;1.50;;;18.10;49.90;;;20.79;39.39;101514.38;5052149;28;20311;-63
2022/09/03 04:22:37;;;;;;;1.93;1.83;;;18.10;49.30;;;20.78;39.35;101515.41;5051968;28;20220;-62
2022/09/03 04:25:05;;;;;;;1.47;1.37;;;18.10;49.20;;;20.75;39.92;101516.69;5052198;28;20609;-65
2022/09/03 04:27:33;;;;;;;2.20;1.60;;;18.10;49.30;;;20.74;40.07;101516.91;5052505;28;20190;-62
2022/09/03 04:30:02;;;;;;;1.60;1.50;;;18.10;49.40;;;20.74;40.01;101519.59;5052451;28;20194;-63
2022/09/03 04:35:19;;;;;;;2.37;1.87;;;18.10;49.40;;;20.75;39.79;101507.84;5032159;28;20195;-62
2022/09/03 04:37:47;;;;;;;2.10;1.60;;;18.10;49.40;;;20.75;39.55;101510.53;5033046;28;20566;-63
2022/09/03 04:40:15;;;;;;;1.70;1.60;;;18.10;49.40;;;20.78;39.56;101507.38;5033240;28;20199;-63
2022/09/03 04:42:42;;;;;;;2.90;1.90;;;18.10;49.40;;;20.80;39.33;101502.66;5032921;28;20317;-63
2022/09/03 04:45:17;;;;;;;2.27;1.50;;;18.10;49.30;;;20.81;39.88;101506.94;5042917;28;20201;-63
2022/09/03 04:47:55;;;;;;;3.43;2.20;;;18.20;49.30;;;20.80;39.72;101502.66;5056781;28;20491;-62
2022/09/03 04:50:22;;;;;;;2.23;1.87;;;18.10;49.20;;;20.81;39.30;101507.78;5057223;28;20631;-62
2022/09/03 04:52:50;;;;;;;2.17;1.90;;;18.20;49.20;;;20.82;39.69;101506.72;5056108;28;20602;-63
2022/09/03 04:55:18;;;;;;;2.80;1.70;;;18.20;49.20;;;20.83;39.35;101505.69;5056512;28;20190;-62
2022/09/03 04:57:45;;;;;;;2.47;1.23;;;18.20;49.20;;;20.83;39.26;101505.69;5057791;28;20705;-62
2022/09/03 05:00:17;;;;;;;2.20;1.47;;;18.20;49.20;;;20.84;39.69;101511.88;5056212;28;20205;-62
2022/09/03 05:02:47;;;;;;;4.00;1.70;;;18.20;49.30;;;20.87;39.39;101506.09;5056551;28;20212;-63
2022/09/03 05:05:15;;;;;;;2.20;1.70;;;18.20;49.10;;;20.89;39.30;101509.34;5056335;28;20211;-63
2022/09/03 05:07:42;;;;;;;2.17;1.50;;;18.20;49.10;;;20.88;39.64;101507.69;5056669;28;20232;-63
2022/09/03 05:10:19;;;;;;;1.53;1.43;;;18.20;49.10;;;20.89;39.03;101509.34;5056502;28;20190;-62
2022/09/03 05:12:48;;;;;;;1.60;1.50;;;18.20;49.00;;;20.88;39.38;101513.06;5055916;28;20226;-63
2022/09/03 05:15:17;;;;;;;2.13;1.70;;;18.20;49.10;;;20.87;39.48;101512.22;5056415;28;20190;-62
2022/09/03 05:17:44;;;;;;;2.40;1.60;;;18.20;49.10;;;20.88;39.67;101510.38;5056036;28;20542;-62
2022/09/03 05:20:12;;;;;;;1.90;1.57;;;18.20;49.20;;;20.89;39.77;101514.69;5071513;28;20194;-61
2022/09/03 05:22:40;;;;;;;1.67;1.30;;;18.20;49.30;;;20.91;39.47;101513.44;5056021;28;20214;-62
2022/09/03 05:25:08;;;;;;;1.77;1.67;;;18.20;49.20;;;20.96;39.09;101514.63;5055993;28;20193;-63
2022/09/03 05:27:35;;;;;;;1.53;1.43;;;18.20;49.20;;;20.98;39.63;101510.69;5072816;28;20553;-62
2022/09/03 05:30:03;;;;;;;2.00;1.80;;;18.30;49.20;;;21.00;39.40;101511.25;5075971;28;20676;-63
2022/09/03 05:32:33;;;;;;;2.57;1.70;;;18.30;49.10;;;21.00;39.09;101505.91;5075857;28;20638;-63
2022/09/03 05:35:00;;;;;;;2.13;1.33;;;18.30;49.00;;;20.99;38.96;101508.81;5056597;28;20193;-62
2022/09/03 05:37:27;;;;;;;2.70;1.40;;;18.30;49.10;;;21.01;38.92;101512.91;5069919;28;20205;-63
2022/09/03 05:39:55;;;;;;;2.53;1.40;;;18.30;49.10;;;21.01;39.17;101515.59;5075898;28;20182;-64
2022/09/03 05:42:22;;;;;;;4.73;1.67;;;18.30;49.10;;;21.02;39.45;101506.50;5075610;28;20217;-64
2022/09/03 05:44:50;;;;;;;3.20;1.47;;;18.30;49.00;;;21.00;39.12;101502.41;5067404;28;20194;-61
2022/09/03 05:47:17;;;;;;;4.93;1.77;;;18.30;49.00;;;20.98;39.08;101502.66;5055898;28;20183;-63
2022/09/03 05:49:46;;;;;;;41.90;37.53;;;18.30;49.20;;;20.97;39.02;101501.00;5055382;28;20296;-64
2022/09/03 05:52:13;;;;;;;3.93;3.40;;;18.30;49.20;;;20.98;39.11;101509.84;5055168;28;20309;-63
2022/09/03 05:54:41;;;;;;;2.43;1.80;;;18.20;49.30;;;20.99;39.55;101514.19;5055350;28;20197;-62
2022/09/03 05:57:08;;;;;;;1.53;1.23;;;18.20;49.90;;;21.00;39.41;101516.63;5054665;28;20206;-63
2022/09/03 05:59:35;;;;;;;2.57;1.67;;;18.20;49.20;;;20.99;39.03;101509.63;5054966;28;20205;-62
2022/09/03 06:02:04;;;;;;;19.80;17.90;;;18.20;49.20;;;21.01;39.16;101512.91;5055080;28;20224;-64
2022/09/03 06:04:32;;;;;;;8.70;7.17;;;18.30;49.40;;;21.03;39.23;101510.00;5055246;28;20201;-65
2022/09/03 06:07:01;;;;;;;11.57;8.87;;;18.30;49.40;;;21.07;39.05;101512.03;5055575;28;20213;-63
2022/09/03 06:09:29;;;;;;;3.73;3.40;;;18.30;49.40;;;21.14;39.37;101514.63;5055192;28;20194;-63
2022/09/03 06:11:56;;;;;;;6.40;2.20;;;18.40;49.40;;;21.20;39.20;101511.88;5054732;28;20225;-64
2022/09/03 06:14:26;;;;;;;2.20;2.00;;;18.40;49.20;;;21.23;39.46;101519.44;5054942;28;20714;-64
2022/09/03 06:16:54;;;;;;;2.10;1.90;;;18.50;49.10;;;21.27;39.16;101520.66;5053902;28;20214;-64
2022/09/03 06:19:22;;;;;;;1.87;1.30;;;18.50;49.10;;;21.34;38.90;101520.56;5054353;28;20198;-64
2022/09/03 06:21:49;;;;;;;4.60;4.10;;;18.50;49.10;;;21.39;38.60;101521.53;5054044;28;20220;-64
2022/09/03 06:24:23;;;;;;;1.63;1.50;;;18.60;49.00;;;21.45;38.54;101519.78;5055354;28;20194;-64
2022/09/03 06:26:54;;;;;;;2.10;1.60;;;18.60;48.80;;;21.48;38.85;101520.16;5054913;28;20277;-63
2022/09/03 06:29:22;;;;;;;1.70;1.60;;;18.70;48.80;;;21.49;38.42;101515.59;5055447;28;20186;-64
2022/09/03 06:31:50;;;;;;;1.90;1.60;;;18.70;48.70;;;21.50;38.37;101518.06;5054820;28;20229;-64
2022/09/03 06:34:17;;;;;;;1.83;1.20;;;18.80;48.80;;;21.54;38.97;101515.75;5068664;28;20189;-64
2022/09/03 06:36:45;;;;;;;2.90;2.30;;;18.80;48.70;;;21.63;38.97;101516.25;5067065;28;20359;-63
2022/09/03 06:39:12;;;;;;;3.60;1.70;;;18.90;48.70;;;21.69;38.41;101515.34;5055594;28;20196;-63
2022/09/03 06:41:41;;;;;;;2.27;2.07;;;18.90;48.50;;;21.76;38.72;101511.50;5055027;28;20224;-63
2022/09/03 06:44:12;;;;;;;1.87;1.50;;;19.00;48.50;;;21.83;38.63;101511.41;5054529;28;20273;-63
2022/09/03 06:46:43;;;;;;;4.47;1.37;;;19.00;49.00;;;21.92;37.88;101515.41;5054517;28;20606;-65
2022/09/03 06:49:11;;;;;;;1.73;1.10;;;19.10;48.40;;;21.99;38.03;101513.44;5054446;28;20190;-65
2022/09/03 06:51:39;;;;;;;3.00;1.47;;;19.20;48.20;;;22.03;37.76;101512.78;5053772;28;20190;-63
2022/09/03 06:54:09;;;;;;;2.43;2.23;;;19.20;48.10;;;22.13;37.73;101520.25;5054319;28;20201;-63
2022/09/03 06:56:40;;;;;;;2.03;1.50;;;19.30;48.00;;;22.16;37.66;101514.41;5054397;28;20196;-63
2022/09/03 06:59:10;;;;;;;5.10;1.90;;;19.40;47.80;;;22.24;37.64;101509.53;5054429;28;20197;-63
2022/09/03 07:01:41;;;;;;;3.43;2.33;;;19.40;47.70;;;22.39;37.47;101516.31;5053765;28;20200;-65
2022/09/03 07:04:13;;;;;;;2.73;1.37;;;19.50;47.60;;;22.50;37.20;101520.84;5054439;28;20650;-63
2022/09/03 07:06:41;;;;;;;1.50;1.10;;;19.60;47.30;;;22.61;36.94;101512.00;5054570;28;20647;-63
2022/09/03 07:09:12;;;;;;;2.13;1.20;;;19.70;47.10;;;22.73;36.72;101513.63;5053543;28;20212;-63
2022/09/03 07:11:45;;;;;;;3.17;2.17;;;19.80;46.90;;;22.87;36.17;101514.19;5053382;28;20224;-63
2022/09/03 07:14:16;;;;;;;3.03;2.53;;;19.90;46.60;;;23.21;36.09;101515.97;5054303;28;20220;-65
2022/09/03 07:16:44;;;;;;;2.00;1.40;;;20.10;46.50;;;23.69;35.48;101515.59;5054731;28;20194;-64
2022/09/03 07:19:12;;;;;;;4.20;2.23;;;20.40;46.30;;;24.30;34.63;101516.59;5063636;28;20221;-63
2022/09/03 07:21:40;;;;;;;3.43;1.20;;;20.70;45.80;;;24.87;33.71;101512.63;5073926;28;20523;-63
2022/09/03 07:24:14;;;;;;;4.17;1.30;;;21.10;45.50;;;25.48;33.26;101511.50;5074248;28;20188;-63
2022/09/03 07:26:47;;;;;;;1.20;1.13;;;21.60;44.60;;;26.15;32.01;101506.44;5073786;28;20189;-64
2022/09/03 07:29:18;;;;;;;4.07;1.40;;;22.10;43.60;;;26.67;31.03;101512.72;5073913;28;20208;-64
2022/09/03 07:31:50;;;;;;;2.53;1.17;;;22.60;42.00;;;27.01;29.62;101504.25;5089131;28;20666;-63
2022/09/03 07:34:19;;;;;;;1.90;1.20;;;23.10;40.50;;;27.04;29.94;101504.56;5059920;28;20240;-64
2022/09/03 07:36:49;;;;;;;1.17;1.07;;;23.50;39.60;;;27.01;30.06;101504.25;5063249;28;20190;-65
2022/09/03 07:39:18;;;;;;;1.23;1.13;;;23.70;39.00;;;27.31;29.50;101505.19;5074021;28;20221;-64
2022/09/03 07:41:49;;;;;;;2.00;1.57;;;23.80;38.80;;;27.99;28.80;101501.28;5065300;28;20315;-63
2022/09/03 07:44:23;;;;;;;1.93;1.50;;;24.10;38.70;;;28.90;28.07;101501.09;5052072;28;20186;-64
2022/09/03 07:46:51;;;;;;;2.43;1.53;;;24.60;38.10;;;29.82;26.73;101502.22;5053442;28;20193;-64
2022/09/03 07:49:20;;;;;;;3.53;1.37;;;25.20;37.50;;;30.52;24.87;101506.22;5053310;28;20212;-64
2022/09/03 07:51:52;;;;;;;3.07;1.40;;;25.70;35.00;;;31.02;24.63;101500.22;5053312;28;20298;-64
2022/09/03 07:54:22;;;;;;;2.03;1.40;;;26.30;33.80;;;31.44;24.53;101493.91;5053498;28;20257;-64
2022/09/03 07:56:51;;;;;;;1.73;1.40;;;26.80;33.50;;;31.69;24.07;101495.44;5053519;28;20277;-64
2022/09/03 07:59:21;;;;;;;2.83;1.50;;;27.10;32.60;;;32.14;23.70;101500.13;5053379;28;20212;-64
2022/09/03 08:01:49;;;;;;;4.30;1.60;;;27.50;32.00;;;32.71;22.96;101501.56;5053074;28;20221;-64
2022/09/03 08:04:17;;;;;;;2.83;1.50;;;27.80;32.10;;;33.48;21.85;101504.25;5053131;28;20217;-64
2022/09/03 08:06:44;;;;;;;3.43;1.50;;;28.20;30.50;;;33.96;20.82;101508.00;5053075;28;20204;-64
2022/09/03 08:09:12;;;;;;;1.57;1.40;;;28.60;29.60;;;34.44;20.80;101508.94;5052910;28;20189;-64
2022/09/03 08:11:42;;;;;;;2.77;1.37;;;29.10;29.10;;;34.85;20.32;101518.78;5053198;28;20220;-63
2022/09/03 08:14:13;;;;;;;2.70;1.60;;;29.60;28.40;;;35.01;20.13;101515.25;5053336;28;20192;-65
2022/09/03 08:16:43;;;;;;;2.70;1.60;;;29.90;27.90;;;35.20;19.97;101506.78;5072595;28;20256;-65
2022/09/03 08:19:11;;;;;;;2.60;1.33;;;30.20;27.90;;;35.48;19.94;101510.00;5072797;28;20197;-64
2022/09/03 08:21:40;;;;;;;1.40;1.30;;;30.50;27.20;;;35.67;18.85;101500.34;5076930;28;20221;-63
2022/09/03 08:24:10;;;;;;;3.43;1.40;;;30.80;26.50;;;35.85;18.92;101504.66;5076966;28;20215;-63
2022/09/03 08:26:43;;;;;;;1.93;1.60;;;31.00;26.20;;;35.87;19.09;101504.38;5077241;28;20192;-63
2022/09/03 08:29:20;;;;;;;3.73;1.53;;;31.20;26.40;;;35.74;19.41;101508.88;5076480;28;20200;-65
2022/09/03 08:31:47;;;;;;;1.70;1.53;;;31.30;26.20;;;36.15;18.69;101507.53;5076345;28;20221;-66
2022/09/03 08:34:16;;;;;;;4.70;1.77;;;31.40;25.90;;;36.61;18.52;101518.53;5063457;28;20185;-64
2022/09/03 08:36:45;;;;;;;3.27;1.50;;;31.60;25.70;;;37.06;18.04;101507.78;5064691;28;20307;-64
2022/09/03 08:39:14;;;;;;;1.50;1.40;;;31.80;25.20;;;37.25;16.74;101514.41;5058117;28;20216;-65
2022/09/03 08:42:24;;;;;;;3.23;2.13;;;32.00;24.40;;;37.22;17.16;101512.34;5056462;28;20209;-64
2022/09/03 08:44:57;;;;;;;2.25;1.85;;;32.20;24.30;;;37.52;16.76;101515.84;5062006;28;20206;-65
2022/09/03 08:47:32;;;;;;;1.70;1.60;;;32.50;24.10;;;37.83;16.77;101512.66;5056775;28;20198;-63
2022/09/03 08:50:07;;;;;;;2.58;1.80;;;32.70;24.30;;;38.37;16.27;101514.19;5056328;28;20200;-64
2022/09/03 08:52:45;;;;;;;2.35;2.10;;;32.90;23.70;;;38.56;16.14;101503.41;5056524;28;20221;-64
2022/09/03 08:55:22;;;;;;;3.35;1.98;;;33.10;23.60;;;38.88;15.79;101498.94;5056168;28;20588;-64
2022/09/03 08:57:59;;;;;;;3.63;1.70;;;33.40;23.20;;;39.20;15.30;101502.69;5056482;28;20304;-63
2022/09/03 09:00:45;;;;;;;2.25;1.67;;;33.60;22.70;;;39.51;15.30;101516.56;5056042;28;20231;-64
2022/09/03 09:03:47;;;;;;;3.47;1.80;;;33.80;22.60;;;39.84;14.83;101508.88;5056611;28;20705;-66
2022/09/03 09:06:25;;;;;;;2.83;1.77;;;34.00;22.00;;;39.88;14.90;101504.25;5056615;28;20203;-64
2022/09/03 09:09:09;;;;;;;1.55;1.45;;;34.20;22.20;;;40.06;14.56;101498.44;5056786;28;20197;-66
2022/09/03 09:11:54;;;;;;;2.00;1.60;;;34.40;21.80;;;40.35;14.72;101496.03;5047974;28;20616;-64
2022/09/03 09:14:33;;;;;;;3.42;1.45;;;34.60;21.90;;;40.73;14.33;101505.63;5036376;28;20183;-65
2022/09/03 09:17:22;;;;;;;3.33;1.80;;;34.80;21.60;;;40.63;13.72;101504.22;5036585;28;20652;-63
2022/09/03 09:20:06;;;;;;;1.70;1.58;;;34.90;20.70;;;40.12;14.38;101497.00;5036388;28;20186;-64
2022/09/03 09:22:39;;;;;;;2.47;1.30;;;34.80;20.80;;;39.92;14.74;101498.81;5036219;28;20218;-66
2022/09/03 09:25:15;;;;;;;2.85;1.60;;;34.80;20.90;;;39.56;14.71;101510.81;5036488;28;20186;-64
2022/09/03 09:27:52;;;;;;;3.60;1.50;;;34.60;20.80;;;39.55;14.35;101500.97;5036205;28;20194;-66
2022/09/03 09:30:20;;;;;;;2.20;1.63;;;34.60;20.90;;;39.60;14.48;101497.97;5036789;28;20196;-63
2022/09/03 09:32:49;;;;;;;1.58;1.48;;;34.60;20.80;;;39.94;14.31;101501.25;5037692;28;20344;-64
2022/09/03 09:35:18;;;;;;;1.60;1.50;;;34.70;20.80;;;40.12;14.47;101481.25;5059903;28;20549;-64
2022/09/03 09:37:52;;;;;;;2.00;1.80;;;34.70;20.70;;;40.26;14.68;101480.81;5072215;28;20251;-64
2022/09/03 09:40:31;;;;;;;2.47;1.75;;;34.90;21.10;;;40.67;14.03;101482.22;5075909;28;20546;-65
2022/09/03 09:43:14;;;;;;;1.90;1.80;;;35.10;21.00;;;41.25;13.86;101483.13;5076537;28;20681;-65
2022/09/03 09:45:45;;;;;;;2.15;1.63;;;35.20;20.60;;;41.18;12.94;101484.56;5061236;28;20194;-65
2022/09/03 09:48:28;;;;;;;1.73;1.63;;;35.30;19.80;;;40.81;12.88;101477.81;5055658;28;20253;-66
2022/09/03 09:51:07;;;;;;;1.40;1.27;;;35.20;19.80;;;40.89;12.99;101485.09;5055499;28;20537;-65
2022/09/03 09:53:35;;;;;;;3.92;1.65;;;35.40;20.10;;;41.13;13.01;101475.75;5055295;28;20221;-64
2022/09/03 09:56:03;;;;;;;2.42;1.70;;;35.50;20.20;;;41.41;13.25;101476.38;5055301;28;20189;-65
2022/09/03 09:58:33;;;;;;;3.58;2.03;;;35.60;19.90;;;41.72;12.64;101478.94;5054212;28;20742;-65
2022/09/03 10:01:11;;;;;;;2.72;2.47;;;35.70;19.60;;;41.86;12.38;101464.59;5055362;28;20201;-64
2022/09/03 10:03:56;;;;;;;1.75;1.40;;;35.90;19.50;;;41.91;12.62;101472.59;5055950;28;20247;-65
2022/09/03 10:09:17;;;;;;;3.92;1.65;;;36.20;19.40;;;42.45;12.46;101459.25;5035362;28;20199;-65
2022/09/03 10:11:50;;;;;;;4.25;1.70;;;36.40;19.30;;;42.64;12.14;101463.09;5035543;28;20212;-64
2022/09/03 10:14:32;;;;;;;2.72;1.75;;;36.50;19.10;;;42.91;11.88;101459.94;5035339;28;20236;-64
2022/09/03 10:17:09;;;;;;;4.63;1.55;;;36.70;18.70;;;42.71;11.76;101454.91;5035713;28;20183;-64
2022/09/03 10:20:26;;;;;;;5.68;1.92;;;36.70;18.30;;;42.33;11.90;101461.44;5035426;28;20285;-64
2022/09/03 10:22:48;;;;;;;3.13;1.90;;;36.70;18.10;;;42.31;11.65;101461.00;5035028;28;20237;-66
2022/09/03 10:25:34;;;;;;;3.08;1.60;;;36.70;18.00;;;42.70;11.12;101467.16;5035388;28;20268;-66
2022/09/03 10:28:02;;;;;;;2.10;1.77;;;36.70;17.70;;;42.55;11.21;101459.81;5035854;28;20202;-66
2022/09/03 10:30:54;;;;;;;2.70;1.88;;;36.70;17.90;;;42.63;11.31;101450.41;5042961;28;20198;-65
2022/09/03 10:33:30;;;;;;;4.00;1.60;;;36.60;17.90;;;42.31;11.55;101453.50;5060930;28;20258;-65
2022/09/03 10:36:15;;;;;;;4.57;1.75;;;36.60;17.70;;;41.17;12.61;101449.78;5073634;28;20515;-64
2022/09/03 10:38:49;;;;;;;2.63;1.98;;;36.30;17.90;;;40.65;12.36;101443.91;5054859;28;20220;-65
2022/09/03 10:41:40;;;;;;;3.10;1.50;;;36.10;17.90;;;39.51;12.97;101444.88;5054570;28;20170;-64
2022/09/03 10:44:34;;;;;;;1.70;1.60;;;35.50;18.30;;;38.59;14.21;101438.59;5054217;28;20631;-64